Time;durP1;ratioP1;P1;durP2;ratioP2;P2;SDS_P1;SDS_P2;PMS_P1;PMS_P2;Temp;Humidity;BMP_temperature;BMP_pressure;BME280_temperature;BME280_humidity;BME280_pressure;Samples;Min_cycle;Max_cycle;Signal;HPM_P1;HPM_P2
2023/08/22 00:01:23;;;;;;;3.92;1.58;;;19.50;99.90;;;;;;4998193;28;20232;-91
2023/08/22 00:03:52;;;;;;;3.78;1.50;;;19.30;99.90;;;;;;4998319;28;20180;-92
2023/08/22 00:06:20;;;;;;;6.45;1.77;;;19.20;99.90;;;;;;4998200;28;20172;-92
2023/08/22 00:08:46;;;;;;;5.10;1.73;;;19.10;99.90;;;;;;5015655;28;20551;-91
2023/08/22 00:11:11;;;;;;;3.35;1.50;;;19.00;99.90;;;;;;4998191;28;20619;-91
2023/08/22 00:13:46;;;;;;;9.85;1.75;;;19.00;99.90;;;;;;4998044;28;20175;-91
2023/08/22 00:16:12;;;;;;;2.40;1.40;;;18.90;99.90;;;;;;4998184;28;20269;-91
2023/08/22 00:18:38;;;;;;;5.65;1.95;;;18.90;99.90;;;;;;4998390;28;20179;-91
2023/08/22 00:21:03;;;;;;;7.43;1.70;;;18.90;99.90;;;;;;4997661;28;20617;-91
2023/08/22 00:23:29;;;;;;;8.27;2.13;;;18.80;99.90;;;;;;4997742;28;20179;-91
2023/08/22 00:25:55;;;;;;;8.13;2.05;;;18.80;99.90;;;;;;4998157;28;20183;-91
2023/08/22 00:28:21;;;;;;;6.50;1.85;;;18.90;99.90;;;;;;4997561;28;20178;-91
2023/08/22 00:30:47;;;;;;;5.82;1.60;;;18.90;99.90;;;;;;4997926;28;20233;-91
2023/08/22 00:33:13;;;;;;;4.90;1.58;;;18.90;99.90;;;;;;5015290;28;20179;-90
2023/08/22 00:35:42;;;;;;;5.25;1.50;;;18.90;99.90;;;;;;4997843;28;20253;-91
2023/08/22 00:38:08;;;;;;;4.63;1.60;;;18.90;99.90;;;;;;4997827;28;20175;-89
2023/08/22 00:40:33;;;;;;;3.38;1.92;;;18.90;99.90;;;;;;4997736;28;20179;-89
2023/08/22 00:42:59;;;;;;;5.47;1.70;;;19.00;99.90;;;;;;5000010;28;20227;-90
2023/08/22 00:45:27;;;;;;;7.47;1.60;;;18.90;99.90;;;;;;5001851;28;20610;-90
2023/08/22 00:47:52;;;;;;;5.30;1.50;;;18.90;99.90;;;;;;5002017;28;20178;-90
2023/08/22 00:50:24;;;;;;;5.38;1.40;;;19.00;99.90;;;;;;5019061;28;20175;-90
2023/08/22 00:52:50;;;;;;;3.35;1.65;;;19.00;99.90;;;;;;5001765;28;20177;-90
2023/08/22 00:55:17;;;;;;;3.45;1.50;;;19.00;99.90;;;;;;5001233;28;20206;-90
2023/08/22 00:57:43;;;;;;;4.45;1.80;;;18.90;99.90;;;;;;5001334;28;20171;-90
2023/08/22 01:00:10;;;;;;;5.47;1.70;;;18.90;99.90;;;;;;5001454;28;20640;-88
2023/08/22 01:02:38;;;;;;;4.05;1.40;;;19.00;99.90;;;;;;5001330;28;20525;-90
2023/08/22 01:05:06;;;;;;;3.28;1.58;;;19.10;99.90;;;;;;5001252;28;20179;-90
2023/08/22 01:07:48;;;;;;;7.72;1.58;;;19.30;99.90;;;;;;5001241;28;20175;-89
2023/08/22 01:10:28;;;;;;;2.30;1.30;;;19.40;99.90;;;;;;5001334;28;20179;-90
2023/08/22 01:13:19;;;;;;;6.60;1.50;;;19.40;99.90;;;;;;5001307;28;20167;-89
2023/08/22 01:15:48;;;;;;;5.22;1.30;;;19.50;99.90;;;;;;5001033;28;20203;-91
2023/08/22 01:18:15;;;;;;;2.85;1.58;;;19.50;99.90;;;;;;5001112;28;20172;-91
2023/08/22 01:20:41;;;;;;;5.75;1.77;;;19.50;99.90;;;;;;5001069;28;20275;-91
2023/08/22 01:23:07;;;;;;;2.40;1.40;;;19.30;99.90;;;;;;5001058;28;20207;-90
2023/08/22 01:25:33;;;;;;;5.22;1.60;;;19.30;99.90;;;;;;5019747;28;20293;-90
2023/08/22 01:28:20;;;;;;;4.28;1.55;;;19.30;99.90;;;;;;5020381;28;20609;-90
2023/08/22 01:31:13;;;;;;;3.70;1.50;;;19.20;99.90;;;;;;5020773;28;20560;-90
2023/08/22 01:34:19;;;;;;;3.13;1.35;;;19.20;99.90;;;;;;5020724;28;20868;-90
2023/08/22 01:36:46;;;;;;;5.38;1.40;;;19.20;99.90;;;;;;5038044;28;20260;-90
2023/08/22 01:39:18;;;;;;;3.90;1.50;;;19.30;99.90;;;;;;5020288;28;20197;-90
2023/08/22 01:41:44;;;;;;;4.63;1.50;;;19.30;99.90;;;;;;5020226;28;20183;-89
2023/08/22 01:44:16;;;;;;;4.38;1.42;;;19.30;99.90;;;;;;5038041;28;20167;-90
2023/08/22 01:46:41;;;;;;;5.10;1.65;;;19.30;99.90;;;;;;5020217;28;20282;-90
2023/08/22 01:49:07;;;;;;;2.88;1.48;;;19.20;99.90;;;;;;5019985;28;20267;-90
2023/08/22 01:51:33;;;;;;;4.82;1.45;;;19.10;99.90;;;;;;5020185;28;20175;-90
2023/08/22 01:53:59;;;;;;;6.07;1.55;;;19.00;99.90;;;;;;5013594;28;20191;-91
2023/08/22 01:56:29;;;;;;;4.47;1.33;;;18.80;99.90;;;;;;5000479;28;20215;-90
2023/08/22 01:58:55;;;;;;;7.47;1.60;;;18.90;99.90;;;;;;5000024;28;20226;-88
2023/08/22 02:01:22;;;;;;;4.47;1.40;;;18.90;99.90;;;;;;5000467;28;20187;-89
2023/08/22 02:03:51;;;;;;;6.63;1.60;;;18.90;99.90;;;;;;5000484;28;20187;-89
2023/08/22 02:06:17;;;;;;;8.10;1.50;;;19.10;99.90;;;;;;5000112;28;20886;-90
2023/08/22 02:08:43;;;;;;;5.70;1.48;;;19.10;99.90;;;;;;5000253;28;20167;-90
2023/08/22 02:11:09;;;;;;;4.18;1.70;;;19.00;99.90;;;;;;5000087;28;20171;-89
2023/08/22 02:13:35;;;;;;;3.05;1.38;;;19.00;99.90;;;;;;5000272;28;20572;-90
2023/08/22 02:16:05;;;;;;;4.13;1.63;;;19.00;99.90;;;;;;5000085;28;20222;-90
2023/08/22 02:18:31;;;;;;;3.97;1.58;;;19.00;99.90;;;;;;5000160;28;20244;-89
2023/08/22 02:20:57;;;;;;;6.85;1.45;;;19.00;99.90;;;;;;4999930;28;20269;-90
2023/08/22 02:23:23;;;;;;;3.85;1.67;;;19.10;99.90;;;;;;5000050;28;20266;-90
2023/08/22 02:26:00;;;;;;;6.00;1.20;;;19.10;99.90;;;;;;4999868;28;20246;-90
2023/08/22 02:28:26;;;;;;;2.40;1.33;;;19.10;99.90;;;;;;5000109;28;20261;-90
2023/08/22 02:30:55;;;;;;;3.85;1.33;;;19.10;99.90;;;;;;5000236;28;20265;-91
2023/08/22 02:33:21;;;;;;;4.75;1.75;;;19.10;99.90;;;;;;5000414;28;20644;-90
2023/08/22 02:35:47;;;;;;;3.50;1.42;;;19.10;99.90;;;;;;4999746;28;20221;-89
2023/08/22 02:38:13;;;;;;;3.53;1.40;;;19.20;99.90;;;;;;4999576;28;20164;-90
2023/08/22 02:40:39;;;;;;;3.60;1.50;;;19.20;99.90;;;;;;4999550;28;20266;-89
2023/08/22 02:43:05;;;;;;;4.18;1.52;;;19.20;99.90;;;;;;5016599;28;20242;-89
2023/08/22 02:45:33;;;;;;;4.40;1.40;;;19.20;99.90;;;;;;4999254;28;20183;-90
2023/08/22 02:47:58;;;;;;;2.92;1.45;;;19.30;99.90;;;;;;4999338;28;20199;-89
2023/08/22 02:50:24;;;;;;;3.47;1.40;;;19.20;99.90;;;;;;4999178;28;20280;-89
2023/08/22 02:52:51;;;;;;;6.00;1.58;;;19.30;99.90;;;;;;4999209;28;20589;-89
2023/08/22 02:55:20;;;;;;;5.20;1.40;;;19.30;99.90;;;;;;5012087;28;20243;-88
2023/08/22 02:57:46;;;;;;;2.65;1.40;;;19.30;99.90;;;;;;5015252;28;20206;-88
2023/08/22 03:00:13;;;;;;;3.35;1.20;;;19.40;99.90;;;;;;5016443;28;20175;-89
2023/08/22 03:02:39;;;;;;;4.10;1.15;;;19.30;99.90;;;;;;5015702;28;20233;-89
2023/08/22 03:05:08;;;;;;;9.20;1.65;;;19.30;99.90;;;;;;5014448;28;20278;-89
2023/08/22 03:07:35;;;;;;;4.38;1.45;;;19.40;99.90;;;;;;5015357;28;20179;-89
2023/08/22 03:10:00;;;;;;;5.13;1.65;;;19.30;99.90;;;;;;5014880;28;20230;-88
2023/08/22 03:12:26;;;;;;;6.30;1.50;;;19.30;99.90;;;;;;5015022;28;20187;-89
2023/08/22 03:15:02;;;;;;;7.15;1.45;;;19.40;99.90;;;;;;5014972;28;20207;-89
2023/08/22 03:17:28;;;;;;;2.38;1.30;;;19.30;99.90;;;;;;5015115;28;20187;-89
2023/08/22 03:19:54;;;;;;;4.68;1.40;;;19.30;99.90;;;;;;5014949;28;20242;-89
2023/08/22 03:22:19;;;;;;;3.60;1.30;;;19.30;99.90;;;;;;5014952;28;20265;-89
2023/08/22 03:24:45;;;;;;;4.47;1.50;;;19.30;99.90;;;;;;5017922;28;20214;-89
2023/08/22 03:27:11;;;;;;;7.00;1.55;;;19.30;99.90;;;;;;5035964;28;20261;-89
2023/08/22 03:29:37;;;;;;;3.90;1.55;;;19.40;99.90;;;;;;5017696;28;20174;-89
2023/08/22 03:32:02;;;;;;;2.97;1.25;;;19.40;99.90;;;;;;5018137;28;20193;-89
2023/08/22 03:34:28;;;;;;;4.53;1.40;;;19.40;99.90;;;;;;5017919;28;20202;-89
2023/08/22 03:36:54;;;;;;;3.90;1.48;;;19.40;99.90;;;;;;5017938;28;20179;-89
2023/08/22 03:39:20;;;;;;;2.58;1.17;;;19.40;99.90;;;;;;5017646;28;20202;-88
2023/08/22 03:41:46;;;;;;;5.93;1.45;;;19.30;99.90;;;;;;5035324;28;20178;-89
2023/08/22 03:44:12;;;;;;;4.18;1.35;;;19.30;99.90;;;;;;5018067;28;20182;-89
2023/08/22 03:46:39;;;;;;;4.28;1.55;;;19.30;99.90;;;;;;5017737;28;20187;-89
2023/08/22 03:49:05;;;;;;;4.05;1.58;;;19.30;99.90;;;;;;5017878;28;20174;-88
2023/08/22 03:51:31;;;;;;;5.68;1.52;;;19.20;99.90;;;;;;5017522;28;20213;-89
2023/08/22 03:53:57;;;;;;;4.55;1.30;;;19.30;99.90;;;;;;5035271;28;20183;-89
2023/08/22 03:56:24;;;;;;;5.85;1.45;;;19.30;99.90;;;;;;5017383;28;20585;-90
2023/08/22 03:58:49;;;;;;;7.47;1.50;;;19.30;99.90;;;;;;5017424;28;20261;-90
2023/08/22 04:01:15;;;;;;;4.07;1.45;;;19.30;99.90;;;;;;5017557;28;20265;-90
2023/08/22 04:03:41;;;;;;;7.05;1.33;;;19.30;99.90;;;;;;5017675;28;20178;-90
2023/08/22 04:06:08;;;;;;;4.90;1.92;;;19.20;99.90;;;;;;5017817;28;20211;-90
2023/08/22 04:08:34;;;;;;;6.13;1.55;;;19.20;99.90;;;;;;5017824;28;20202;-89
2023/08/22 04:11:00;;;;;;;2.60;1.33;;;19.20;99.90;;;;;;5035406;28;20182;-89
2023/08/22 04:13:25;;;;;;;2.90;1.45;;;19.20;99.90;;;;;;5017429;28;20206;-90
2023/08/22 04:15:51;;;;;;;3.33;1.35;;;19.10;99.90;;;;;;5017543;28;20244;-90
2023/08/22 04:18:17;;;;;;;5.82;1.90;;;19.10;99.90;;;;;;5018104;28;20167;-91
2023/08/22 04:20:43;;;;;;;4.43;1.77;;;19.00;99.90;;;;;;5035039;28;20628;-88
2023/08/22 04:23:10;;;;;;;5.25;1.48;;;19.00;99.90;;;;;;5017424;28;20213;-89
2023/08/22 04:25:38;;;;;;;7.43;2.22;;;19.00;99.90;;;;;;5017398;28;20573;-88
2023/08/22 04:28:05;;;;;;;3.17;1.58;;;19.00;99.90;;;;;;5034854;28;20163;-90
2023/08/22 04:30:31;;;;;;;3.08;1.42;;;19.00;99.90;;;;;;5017538;28;20174;-88
2023/08/22 04:32:57;;;;;;;7.85;1.80;;;19.00;99.90;;;;;;5017502;28;20204;-88
2023/08/22 04:35:27;;;;;;;3.33;1.40;;;19.00;99.90;;;;;;5017363;28;20213;-87
2023/08/22 04:37:53;;;;;;;3.05;1.52;;;19.00;99.90;;;;;;5017247;28;20173;-87
2023/08/22 04:40:19;;;;;;;3.45;1.55;;;19.10;99.90;;;;;;5016909;28;20258;-87
2023/08/22 04:42:45;;;;;;;4.82;1.58;;;19.10;99.90;;;;;;5016916;28;20276;-87
2023/08/22 04:45:10;;;;;;;3.67;1.55;;;19.10;99.90;;;;;;5017163;28;20178;-86
2023/08/22 04:47:36;;;;;;;7.00;1.80;;;19.10;99.90;;;;;;5034717;28;20179;-87
2023/08/22 04:50:03;;;;;;;4.57;1.42;;;19.10;99.90;;;;;;5016990;28;20174;-87
2023/08/22 04:52:29;;;;;;;4.30;1.60;;;19.10;99.90;;;;;;5013303;28;20207;-88
2023/08/22 04:54:55;;;;;;;2.70;1.40;;;19.10;99.90;;;;;;5003830;28;20282;-88
2023/08/22 04:57:23;;;;;;;4.47;1.50;;;19.00;99.90;;;;;;4997432;28;20518;-88
2023/08/22 04:59:52;;;;;;;5.65;1.65;;;19.00;99.90;;;;;;4997443;28;20206;-88
2023/08/22 05:02:18;;;;;;;2.38;1.50;;;18.80;99.90;;;;;;4997622;28;20177;-88
2023/08/22 05:04:44;;;;;;;4.57;1.50;;;18.90;99.90;;;;;;5014841;28;20653;-88
2023/08/22 05:07:16;;;;;;;6.03;1.60;;;18.80;99.90;;;;;;4997374;28;20175;-87
2023/08/22 05:09:42;;;;;;;4.45;1.83;;;18.90;99.90;;;;;;4997162;28;20606;-86
2023/08/22 05:12:08;;;;;;;6.18;1.48;;;18.90;99.90;;;;;;4996968;28;20187;-86
2023/08/22 05:14:34;;;;;;;4.85;1.90;;;18.90;99.90;;;;;;5014307;28;20371;-86
2023/08/22 05:17:00;;;;;;;7.43;2.08;;;18.90;99.90;;;;;;4997054;28;20183;-87
2023/08/22 05:19:26;;;;;;;4.22;1.38;;;18.90;99.90;;;;;;4997052;28;20183;-87
2023/08/22 05:21:51;;;;;;;8.07;1.70;;;19.00;99.90;;;;;;4997063;28;20570;-87
2023/08/22 05:24:17;;;;;;;5.07;1.80;;;19.00;99.90;;;;;;5005407;28;20241;-86
2023/08/22 05:26:43;;;;;;;5.50;1.90;;;19.00;99.90;;;;;;5016758;28;20209;-87
2023/08/22 05:29:09;;;;;;;5.20;1.70;;;19.00;99.90;;;;;;5036572;28;20170;-87
2023/08/22 05:31:35;;;;;;;5.47;1.73;;;19.00;99.90;;;;;;5022423;28;20178;-87
2023/08/22 05:34:01;;;;;;;3.65;1.77;;;19.00;99.90;;;;;;5022802;28;20557;-88
2023/08/22 05:36:30;;;;;;;5.10;1.58;;;19.10;99.90;;;;;;5038713;28;20206;-88
2023/08/22 05:38:57;;;;;;;3.63;1.90;;;19.10;99.90;;;;;;5010580;28;20175;-89
2023/08/22 05:41:23;;;;;;;3.85;1.88;;;19.10;99.90;;;;;;5000968;28;20629;-88
2023/08/22 05:43:48;;;;;;;6.68;2.00;;;19.20;99.90;;;;;;5000978;28;20234;-89
2023/08/22 05:46:14;;;;;;;7.18;1.77;;;19.20;99.90;;;;;;5018156;28;20193;-89
2023/08/22 05:48:40;;;;;;;5.75;1.58;;;19.20;99.90;;;;;;5018089;28;20187;-88
2023/08/22 05:51:06;;;;;;;5.03;1.77;;;19.20;99.90;;;;;;5000382;28;20233;-87
2023/08/22 05:53:32;;;;;;;2.20;1.25;;;19.20;99.90;;;;;;5000057;28;20204;-89
2023/08/22 05:55:58;;;;;;;3.38;1.70;;;19.20;99.90;;;;;;5000206;28;20223;-90
2023/08/22 05:58:23;;;;;;;5.50;1.55;;;19.20;99.90;;;;;;5000584;28;20213;-89
2023/08/22 06:00:49;;;;;;;6.70;2.00;;;19.20;99.90;;;;;;5000507;28;20175;-89
2023/08/22 06:03:15;;;;;;;5.03;1.90;;;19.10;99.90;;;;;;5017494;28;20561;-88
2023/08/22 06:05:41;;;;;;;4.53;1.45;;;19.10;99.90;;;;;;5000415;28;20179;-89
2023/08/22 06:08:08;;;;;;;4.80;1.80;;;19.10;99.90;;;;;;4999577;28;20229;-89
2023/08/22 06:10:33;;;;;;;3.20;1.63;;;19.00;99.90;;;;;;4999938;28;20175;-89
2023/08/22 06:12:59;;;;;;;3.28;1.90;;;19.10;99.90;;;;;;5000090;28;20186;-89
2023/08/22 06:15:25;;;;;;;4.75;1.65;;;19.10;99.90;;;;;;5007701;28;20221;-90
2023/08/22 06:17:51;;;;;;;3.78;1.83;;;19.10;99.90;;;;;;5019442;28;20235;-89
2023/08/22 06:20:17;;;;;;;5.57;1.75;;;19.10;99.90;;;;;;5019465;28;20601;-89
2023/08/22 06:22:43;;;;;;;3.97;1.95;;;19.20;99.90;;;;;;5018964;28;20178;-89
2023/08/22 06:25:08;;;;;;;3.03;1.83;;;19.20;99.90;;;;;;5019392;28;20174;-89
2023/08/22 06:27:35;;;;;;;5.00;1.70;;;19.20;99.90;;;;;;5019228;28;20183;-89
2023/08/22 06:30:02;;;;;;;4.57;1.90;;;19.20;99.90;;;;;;5019103;28;20175;-89
2023/08/22 06:32:28;;;;;;;6.45;2.33;;;19.10;99.90;;;;;;5036752;28;20171;-89
2023/08/22 06:35:01;;;;;;;3.05;1.95;;;19.10;99.90;;;;;;5036697;28;20237;-89
2023/08/22 06:37:28;;;;;;;3.95;1.90;;;19.20;99.90;;;;;;5019056;28;20550;-88
2023/08/22 06:39:54;;;;;;;4.68;1.73;;;19.20;99.90;;;;;;5036232;28;20169;-89
2023/08/22 06:42:20;;;;;;;7.50;2.00;;;19.30;99.90;;;;;;5036379;28;20650;-89
2023/08/22 06:44:45;;;;;;;3.80;1.70;;;19.30;99.90;;;;;;5036287;28;20170;-88
2023/08/22 06:47:11;;;;;;;3.97;1.70;;;19.30;99.90;;;;;;5017004;28;20179;-88
2023/08/22 06:49:37;;;;;;;5.68;1.85;;;19.30;99.90;;;;;;5018289;28;20670;-88
2023/08/22 06:52:03;;;;;;;3.92;1.80;;;19.40;99.90;;;;;;5018578;28;20218;-88
2023/08/22 06:54:30;;;;;;;7.30;1.70;;;19.50;99.90;;;;;;5018327;28;20228;-88
2023/08/22 06:57:03;;;;;;;3.88;1.70;;;19.60;99.90;;;;;;5018572;28;20609;-89
2023/08/22 06:59:29;;;;;;;5.25;1.65;;;19.80;99.90;;;;;;5018430;28;20167;-89
2023/08/22 07:01:55;;;;;;;5.38;1.75;;;19.90;99.90;;;;;;5018224;28;20174;-89
2023/08/22 07:04:21;;;;;;;7.43;2.40;;;20.00;99.90;;;;;;5036056;28;20174;-88
2023/08/22 07:06:48;;;;;;;3.78;1.65;;;20.00;99.90;;;;;;5036073;28;20557;-89
2023/08/22 07:09:13;;;;;;;2.70;1.45;;;20.10;99.90;;;;;;5017919;28;20171;-90
2023/08/22 07:11:39;;;;;;;4.65;1.85;;;20.30;99.90;;;;;;5017996;28;20527;-88
2023/08/22 07:14:06;;;;;;;6.57;2.17;;;20.50;99.90;;;;;;5018148;28;20561;-88
2023/08/22 07:16:32;;;;;;;4.82;2.00;;;20.80;99.90;;;;;;5035474;28;20214;-88
2023/08/22 07:18:58;;;;;;;3.42;1.73;;;21.00;99.90;;;;;;5018259;28;20178;-88
2023/08/22 07:21:23;;;;;;;4.22;1.70;;;21.20;99.90;;;;;;5018291;28;20605;-89
2023/08/22 07:23:49;;;;;;;7.00;1.65;;;21.30;99.90;;;;;;5018187;28;20610;-89
2023/08/22 07:26:15;;;;;;;6.82;1.50;;;21.50;99.90;;;;;;5018046;28;20185;-88
2023/08/22 07:28:42;;;;;;;4.70;1.70;;;21.60;99.90;;;;;;5017945;28;20179;-89
2023/08/22 07:31:10;;;;;;;4.03;1.75;;;21.80;99.90;;;;;;5017679;28;20181;-89
2023/08/22 07:33:36;;;;;;;4.30;1.42;;;21.90;99.90;;;;;;5017654;28;20509;-89
2023/08/22 07:36:03;;;;;;;8.90;2.00;;;22.00;99.90;;;;;;5018321;28;20276;-87
2023/08/22 07:38:30;;;;;;;4.47;1.50;;;22.10;99.90;;;;;;5017877;28;20174;-90
2023/08/22 07:40:56;;;;;;;5.50;1.77;;;22.10;99.90;;;;;;5035607;28;20163;-90
2023/08/22 07:43:22;;;;;;;4.85;1.58;;;22.10;99.90;;;;;;5017551;28;20222;-89
2023/08/22 07:45:48;;;;;;;4.82;1.60;;;22.20;99.90;;;;;;5018115;28;20224;-91
2023/08/22 07:48:14;;;;;;;7.13;1.80;;;22.40;99.90;;;;;;5035759;28;20170;-91
2023/08/22 07:50:40;;;;;;;6.10;1.58;;;22.40;99.90;;;;;;5017754;28;20179;-89
2023/08/22 07:53:06;;;;;;;4.53;1.48;;;22.30;99.90;;;;;;5017418;28;20269;-91
2023/08/22 07:55:31;;;;;;;9.25;1.98;;;22.20;99.90;;;;;;5001121;28;20226;-91
2023/08/22 07:57:58;;;;;;;4.28;1.52;;;22.20;99.90;;;;;;5014629;28;20232;-89
2023/08/22 08:00:24;;;;;;;2.60;1.25;;;22.20;99.90;;;;;;5014459;28;20175;-89
2023/08/22 08:02:50;;;;;;;4.25;1.60;;;22.20;99.90;;;;;;5014322;28;20565;-90
2023/08/22 08:05:16;;;;;;;3.40;1.60;;;22.10;99.90;;;;;;5014532;28;20242;-90
2023/08/22 08:07:42;;;;;;;5.40;1.52;;;22.10;99.90;;;;;;5014536;28;20190;-88
2023/08/22 08:10:08;;;;;;;6.65;1.80;;;22.00;99.90;;;;;;5015221;28;20505;-90
2023/08/22 08:12:34;;;;;;;3.20;1.35;;;22.00;99.90;;;;;;5014118;28;20273;-90
2023/08/22 08:15:00;;;;;;;4.53;1.80;;;22.10;99.90;;;;;;5014337;28;20597;-90
2023/08/22 08:17:25;;;;;;;5.40;1.73;;;22.10;99.90;;;;;;5014606;28;20175;-91
2023/08/22 08:19:52;;;;;;;5.80;1.70;;;22.10;99.90;;;;;;5014411;28;20186;-90
2023/08/22 08:22:17;;;;;;;4.55;1.70;;;22.10;99.90;;;;;;5014329;28;20171;-89
2023/08/22 08:24:43;;;;;;;3.38;1.50;;;22.30;99.90;;;;;;5016765;28;20631;-88
2023/08/22 08:27:09;;;;;;;3.78;1.55;;;22.50;99.90;;;;;;5035038;28;20171;-90
2023/08/22 08:29:41;;;;;;;5.45;1.40;;;22.70;99.90;;;;;;5017361;28;20174;-90
2023/08/22 08:32:07;;;;;;;4.55;1.33;;;22.80;99.90;;;;;;5034813;28;20162;-90
2023/08/22 08:34:32;;;;;;;5.97;1.55;;;22.90;99.90;;;;;;5034877;28;20174;-91
2023/08/22 08:36:58;;;;;;;4.05;1.30;;;22.90;99.90;;;;;;5017215;28;20640;-89
2023/08/22 08:39:28;;;;;;;8.85;1.73;;;22.80;99.90;;;;;;5016949;28;20180;-92
2023/08/22 08:42:09;;;;;;;3.33;1.70;;;22.90;99.90;;;;;;5017118;28;20735;-91
2023/08/22 08:44:36;;;;;;;5.45;1.67;;;22.80;99.90;;;;;;5034918;28;20166;-91
2023/08/22 08:47:03;;;;;;;1.58;1.10;;;22.80;99.90;;;;;;5017391;28;20209;-91
2023/08/22 08:49:34;;;;;;;3.20;1.38;;;22.90;99.90;;;;;;5017156;28;20300;-90
2023/08/22 08:52:05;;;;;;;4.10;1.42;;;23.00;99.90;;;;;;5017238;28;20555;-89
2023/08/22 08:54:32;;;;;;;4.53;1.65;;;23.20;99.90;;;;;;5013629;28;20517;-89
2023/08/22 08:56:59;;;;;;;7.18;1.67;;;23.40;99.90;;;;;;5014073;28;20516;-90
2023/08/22 08:59:25;;;;;;;8.05;1.63;;;23.60;99.90;;;;;;5013697;28;20232;-89
2023/08/22 09:01:51;;;;;;;2.88;1.33;;;23.80;99.90;;;;;;5014584;28;20652;-89
2023/08/22 09:04:18;;;;;;;5.43;1.35;;;24.10;99.90;;;;;;5016573;28;20218;-90
2023/08/22 09:06:46;;;;;;;3.33;1.23;;;24.30;99.90;;;;;;5017563;28;20560;-91
2023/08/22 09:09:14;;;;;;;3.72;1.35;;;24.50;99.90;;;;;;5017675;28;20179;-92
2023/08/22 09:11:47;;;;;;;8.93;1.65;;;24.50;99.90;;;;;;5017849;28;20175;-92
2023/08/22 09:14:22;;;;;;;3.17;1.20;;;24.50;99.90;;;;;;5017965;28;20649;-92
2023/08/22 09:16:49;;;;;;;4.25;1.50;;;24.50;99.90;;;;;;5017915;28;20273;-91
2023/08/22 09:19:18;;;;;;;4.68;1.42;;;24.40;99.90;;;;;;5017446;28;20484;-92
2023/08/22 09:21:58;;;;;;;4.65;1.42;;;24.30;99.90;;;;;;5018710;28;20172;-93
2023/08/22 09:24:25;;;;;;;5.88;1.50;;;24.30;99.90;;;;;;5025036;28;20617;-91
2023/08/22 09:26:51;;;;;;;3.58;1.45;;;24.20;99.90;;;;;;5020771;28;20640;-91
2023/08/22 09:29:30;;;;;;;6.72;1.70;;;24.20;99.90;;;;;;5020588;28;20206;-93
2023/08/22 09:32:06;;;;;;;4.32;1.40;;;24.20;99.90;;;;;;5020713;28;20185;-89
2023/08/22 09:34:33;;;;;;;4.63;1.17;;;24.30;99.90;;;;;;5020317;28;20182;-90
2023/08/22 09:36:59;;;;;;;2.80;1.13;;;24.50;99.90;;;;;;5020417;28;20182;-90
2023/08/22 09:39:25;;;;;;;3.20;1.15;;;24.70;99.90;;;;;;5020004;28;20620;-92
2023/08/22 09:41:56;;;;;;;2.92;1.20;;;24.60;99.90;;;;;;5020170;28;20193;-91
2023/08/22 09:44:24;;;;;;;5.25;1.50;;;24.60;99.90;;;;;;5020421;28;20188;-90
2023/08/22 09:46:52;;;;;;;6.95;1.48;;;24.50;99.90;;;;;;5037642;28;20167;-90
2023/08/22 09:49:20;;;;;;;16.02;2.38;;;24.30;99.90;;;;;;5037873;28;20171;-91
2023/08/22 09:51:47;;;;;;;6.82;1.35;;;24.30;99.90;;;;;;5020312;28;20170;-91
2023/08/22 09:54:14;;;;;;;3.50;1.20;;;24.20;99.90;;;;;;5014869;28;20526;-90
2023/08/22 09:56:42;;;;;;;3.55;1.30;;;24.40;99.90;;;;;;5000216;28;20683;-89
2023/08/22 09:59:17;;;;;;;3.83;1.02;;;24.40;99.90;;;;;;5000119;28;20172;-92
2023/08/22 10:01:43;;;;;;;4.38;1.40;;;24.70;99.90;;;;;;5000284;28;20273;-89
2023/08/22 10:04:09;;;;;;;3.42;1.15;;;24.90;99.90;;;;;;5000371;28;20182;-89
2023/08/22 10:06:37;;;;;;;4.07;1.33;;;25.10;99.90;;;;;;5000205;28;20194;-91
2023/08/22 10:09:11;;;;;;;3.35;1.35;;;25.20;99.90;;;;;;5000284;28;20179;-90
2023/08/22 10:11:46;;;;;;;5.85;1.20;;;25.20;99.90;;;;;;5000231;28;20236;-90
2023/08/22 10:14:41;;;;;;;4.03;1.10;;;25.30;99.90;;;;;;4999957;28;20183;-92
2023/08/22 10:17:12;;;;;;;3.70;1.20;;;25.20;99.90;;;;;;5000305;28;20332;-91
2023/08/22 10:19:41;;;;;;;6.03;1.35;;;25.10;99.90;;;;;;4999801;28;20175;-90
2023/08/22 10:22:14;;;;;;;7.30;1.30;;;25.10;99.90;;;;;;5017365;28;20190;-91
2023/08/22 10:24:41;;;;;;;3.60;1.10;;;25.10;99.90;;;;;;5005214;28;20187;-90
2023/08/22 10:27:12;;;;;;;12.20;1.30;;;25.20;99.90;;;;;;5019359;28;20188;-91
2023/08/22 10:29:47;;;;;;;6.40;1.38;;;25.20;99.90;;;;;;5019317;28;20167;-90
2023/08/22 10:32:19;;;;;;;2.63;1.20;;;25.10;99.90;;;;;;5019737;28;20184;-91
2023/08/22 10:34:45;;;;;;;2.65;1.30;;;25.20;99.90;;;;;;5019297;28;20238;-93
2023/08/22 10:37:14;;;;;;;3.22;1.10;;;25.30;99.90;;;;;;5019622;28;20282;-92
2023/08/22 10:39:41;;;;;;;4.28;1.13;;;25.30;99.90;;;;;;5019141;28;20181;-91
2023/08/22 10:42:15;;;;;;;2.83;1.30;;;25.20;99.90;;;;;;5018995;28;20309;-92
2023/08/22 10:44:42;;;;;;;2.15;1.20;;;25.20;99.90;;;;;;5019033;28;20178;-91
2023/08/22 10:47:18;;;;;;;5.28;1.65;;;25.30;99.90;;;;;;5018965;28;20179;-91
2023/08/22 10:49:49;;;;;;;6.72;1.55;;;25.40;99.90;;;;;;5019042;28;20173;-91
2023/08/22 10:52:23;;;;;;;4.78;1.48;;;25.30;99.90;;;;;;5019125;28;20197;-91
2023/08/22 10:55:19;;;;;;;4.38;1.33;;;25.30;99.90;;;;;;5018042;28;20264;-92
2023/08/22 10:57:47;;;;;;;4.63;1.35;;;25.20;99.90;;;;;;5035282;28;20645;-93
2023/08/22 11:00:23;;;;;;;4.78;1.40;;;25.20;99.90;;;;;;5018892;28;20186;-92
2023/08/22 11:02:51;;;;;;;4.75;1.40;;;25.20;99.90;;;;;;5018855;28;20265;-92
2023/08/22 11:05:17;;;;;;;7.78;1.60;;;25.20;99.90;;;;;;5019004;28;20178;-90
2023/08/22 11:07:49;;;;;;;5.32;1.58;;;25.30;99.90;;;;;;5018754;28;20179;-91
2023/08/22 11:10:21;;;;;;;3.58;1.40;;;25.40;99.90;;;;;;5018637;28;20224;-93
2023/08/22 11:12:47;;;;;;;4.35;1.70;;;25.40;99.90;;;;;;5018854;28;20242;-94
2023/08/22 11:15:17;;;;;;;4.10;1.45;;;25.20;99.90;;;;;;5018558;28;20209;-92
2023/08/22 11:17:46;;;;;;;8.93;1.70;;;25.10;99.90;;;;;;5018730;28;20182;-90
2023/08/22 11:20:17;;;;;;;3.53;1.65;;;24.90;99.90;;;;;;5018504;28;20563;-93
2023/08/22 11:22:43;;;;;;;13.52;1.50;;;24.90;99.90;;;;;;5018473;28;20174;-93
2023/08/22 11:25:11;;;;;;;4.78;1.50;;;25.10;99.90;;;;;;5018207;28;20297;-91
2023/08/22 11:27:41;;;;;;;4.75;1.52;;;25.30;99.90;;;;;;5018235;28;20186;-91
2023/08/22 11:30:08;;;;;;;7.35;1.63;;;25.50;99.90;;;;;;5018470;28;20179;-93
2023/08/22 11:32:36;;;;;;;12.13;1.70;;;25.70;99.90;;;;;;5018555;28;20618;-92
2023/08/22 11:35:04;;;;;;;4.03;1.50;;;25.60;99.90;;;;;;5018496;28;20360;-92
2023/08/22 11:37:32;;;;;;;3.95;1.50;;;25.60;99.90;;;;;;5018535;28;20194;-92
2023/08/22 11:39:59;;;;;;;6.95;1.73;;;25.70;99.90;;;;;;5018111;28;20617;-90
2023/08/22 11:42:29;;;;;;;6.60;1.77;;;25.70;99.90;;;;;;5018095;28;20236;-93
2023/08/22 11:45:10;;;;;;;6.85;2.17;;;25.60;99.90;;;;;;5018479;28;20178;-91
2023/08/22 11:47:48;;;;;;;6.28;1.90;;;25.30;99.90;;;;;;5018439;28;20174;-92
2023/08/22 11:50:29;;;;;;;4.20;1.88;;;25.10;99.90;;;;;;5018091;28;20592;-92
2023/08/22 11:53:09;;;;;;;5.68;1.48;;;25.00;99.90;;;;;;5017992;28;20177;-95
2023/08/22 11:55:45;;;;;;;7.13;1.88;;;24.90;99.90;;;;;;5017395;28;20219;-93
2023/08/22 11:58:16;;;;;;;5.50;1.90;;;24.80;99.90;;;;;;5017988;28;20504;-90
2023/08/22 12:00:45;;;;;;;6.47;2.00;;;24.80;99.90;;;;;;5017863;28;20178;-95
2023/08/22 12:03:11;;;;;;;7.00;2.08;;;24.80;99.90;;;;;;5017735;28;20261;-93
2023/08/22 12:05:40;;;;;;;3.85;1.90;;;24.80;99.90;;;;;;5017757;28;20214;-93
2023/08/22 12:08:06;;;;;;;8.93;2.30;;;24.70;99.90;;;;;;5035438;28;20194;-90
2023/08/22 12:11:01;;;;;;;7.70;2.20;;;24.70;99.90;;;;;;5017479;28;20276;-88
2023/08/22 12:13:27;;;;;;;6.35;2.03;;;24.70;99.90;;;;;;5005336;28;20217;-90
2023/08/22 12:15:53;;;;;;;5.65;1.95;;;24.70;99.90;;;;;;5017304;28;20210;-89
2023/08/22 12:18:19;;;;;;;8.18;2.15;;;24.60;99.90;;;;;;5017680;28;20182;-90
2023/08/22 12:20:48;;;;;;;8.50;2.20;;;24.70;99.90;;;;;;5035120;28;20181;-87
2023/08/22 12:23:14;;;;;;;5.93;2.10;;;24.70;99.90;;;;;;4999074;28;20258;-89
2023/08/22 12:25:42;;;;;;;5.15;1.88;;;24.80;99.90;;;;;;4997679;28;20222;-89
2023/08/22 12:28:08;;;;;;;6.07;1.88;;;24.80;99.90;;;;;;4998093;28;20180;-87
2023/08/22 12:30:37;;;;;;;6.22;1.83;;;24.70;99.90;;;;;;4997809;28;20614;-90
2023/08/22 12:33:05;;;;;;;2.88;1.80;;;24.80;99.90;;;;;;4997581;28;20186;-91
2023/08/22 12:35:41;;;;;;;5.03;1.90;;;24.70;99.90;;;;;;4999628;28;20665;-93
2023/08/22 12:38:07;;;;;;;3.25;1.63;;;24.80;99.90;;;;;;5022506;28;20166;-93
2023/08/22 12:40:39;;;;;;;6.85;2.10;;;24.80;99.90;;;;;;5023530;28;20203;-94
2023/08/22 12:43:04;;;;;;;4.50;2.00;;;24.90;99.90;;;;;;5023808;28;20230;-91
2023/08/22 12:45:31;;;;;;;6.32;2.10;;;25.00;99.90;;;;;;5024171;28;20188;-92
2023/08/22 12:47:56;;;;;;;6.95;1.80;;;25.00;99.90;;;;;;5023085;28;20182;-90
2023/08/22 12:50:26;;;;;;;3.83;1.90;;;25.10;99.90;;;;;;5023742;28;20189;-91